sensor_id;sensor_type;location;lat;lon;timestamp;P1;durP1;ratioP1;P2;durP2;ratioP2
13552;SDS011;6847;48.830;9.116;2023-09-07T04:52:00;0.00;;;0.00;;
13552;SDS011;6847;48.830;9.116;2023-09-07T04:54:49;0.10;;;0.10;;
13552;SDS011;6847;48.830;9.116;2023-09-07T04:57:35;0.10;;;0.10;;
13552;SDS011;6847;48.830;9.116;2023-09-07T05:00:23;0.10;;;0.10;;
13552;SDS011;6847;48.830;9.116;2023-09-07T05:03:13;0.00;;;0.00;;
13552;SDS011;6847;48.830;9.116;2023-09-07T05:05:59;0.00;;;0.00;;
13552;SDS011;6847;48.830;9.116;2023-09-07T05:08:48;0.10;;;0.10;;
13552;SDS011;6847;48.830;9.116;2023-09-07T05:11:36;0.00;;;0.00;;
13552;SDS011;6847;48.830;9.116;2023-09-07T05:14:24;0.10;;;0.10;;
13552;SDS011;6847;48.830;9.116;2023-09-07T05:17:10;0.10;;;0.10;;
13552;SDS011;6847;48.830;9.116;2023-09-07T05:19:59;0.10;;;0.10;;
13552;SDS011;6847;48.830;9.116;2023-09-07T05:22:44;0.10;;;0.10;;
13552;SDS011;6847;48.830;9.116;2023-09-07T05:25:31;0.00;;;0.00;;
13552;SDS011;6847;48.830;9.116;2023-09-07T05:28:17;0.00;;;0.00;;
13552;SDS011;6847;48.830;9.116;2023-09-07T05:31:03;0.00;;;0.00;;
13552;SDS011;6847;48.830;9.116;2023-09-07T05:33:50;0.10;;;0.10;;
13552;SDS011;6847;48.830;9.116;2023-09-07T05:36:36;0.00;;;0.00;;
13552;SDS011;6847;48.830;9.116;2023-09-07T05:39:23;0.10;;;0.10;;
13552;SDS011;6847;48.830;9.116;2023-09-07T05:42:10;0.08;;;0.08;;
13552;SDS011;6847;48.830;9.116;2023-09-07T05:44:56;0.10;;;0.10;;
13552;SDS011;6847;48.830;9.116;2023-09-07T05:47:41;0.10;;;0.10;;
13552;SDS011;6847;48.830;9.116;2023-09-07T05:50:27;0.10;;;0.10;;
13552;SDS011;6847;48.830;9.116;2023-09-07T05:53:12;0.00;;;0.00;;
13552;SDS011;6847;48.830;9.116;2023-09-07T05:55:58;0.10;;;0.10;;
13552;SDS011;6847;48.830;9.116;2023-09-07T05:58:49;0.00;;;0.00;;
13552;SDS011;6847;48.830;9.116;2023-09-07T06:01:34;0.10;;;0.10;;
13552;SDS011;6847;48.830;9.116;2023-09-07T06:04:20;0.10;;;0.10;;
13552;SDS011;6847;48.830;9.116;2023-09-07T06:07:09;0.10;;;0.10;;
13552;SDS011;6847;48.830;9.116;2023-09-07T06:09:54;0.05;;;0.05;;
13552;SDS011;6847;48.830;9.116;2023-09-07T06:12:42;0.10;;;0.10;;
13552;SDS011;6847;48.830;9.116;2023-09-07T06:15:31;0.10;;;0.10;;
13552;SDS011;6847;48.830;9.116;2023-09-07T06:18:17;0.10;;;0.10;;
13552;SDS011;6847;48.830;9.116;2023-09-07T06:21:08;0.10;;;0.10;;
13552;SDS011;6847;48.830;9.116;2023-09-07T06:23:53;0.10;;;0.10;;
13552;SDS011;6847;48.830;9.116;2023-09-07T06:26:40;0.10;;;0.10;;
13552;SDS011;6847;48.830;9.116;2023-09-07T06:29:30;0.10;;;0.10;;
13552;SDS011;6847;48.830;9.116;2023-09-07T06:32:17;0.10;;;0.10;;
13552;SDS011;6847;48.830;9.116;2023-09-07T06:35:08;0.10;;;0.10;;
13552;SDS011;6847;48.830;9.116;2023-09-07T06:38:01;0.10;;;0.10;;
13552;SDS011;6847;48.830;9.116;2023-09-07T06:40:47;0.10;;;0.10;;
13552;SDS011;6847;48.830;9.116;2023-09-07T06:43:35;0.10;;;0.10;;
13552;SDS011;6847;48.830;9.116;2023-09-07T06:46:21;0.05;;;0.05;;
13552;SDS011;6847;48.830;9.116;2023-09-07T06:49:08;0.10;;;0.10;;
13552;SDS011;6847;48.830;9.116;2023-09-07T06:51:53;0.10;;;0.10;;
13552;SDS011;6847;48.830;9.116;2023-09-07T06:54:39;0.10;;;0.10;;
13552;SDS011;6847;48.830;9.116;2023-09-07T06:57:24;0.10;;;0.10;;
13552;SDS011;6847;48.830;9.116;2023-09-07T07:00:13;0.10;;;0.10;;
13552;SDS011;6847;48.830;9.116;2023-09-07T07:02:59;0.10;;;0.10;;
13552;SDS011;6847;48.830;9.116;2023-09-07T07:05:46;0.10;;;0.10;;
13552;SDS011;6847;48.830;9.116;2023-09-07T07:08:34;0.10;;;0.10;;
13552;SDS011;6847;48.830;9.116;2023-09-07T07:11:20;0.10;;;0.10;;
13552;SDS011;6847;48.830;9.116;2023-09-07T07:14:05;0.10;;;0.10;;
13552;SDS011;6847;48.830;9.116;2023-09-07T07:16:54;0.10;;;0.10;;
13552;SDS011;6847;48.830;9.116;2023-09-07T07:19:42;0.10;;;0.10;;
13552;SDS011;6847;48.830;9.116;2023-09-07T07:22:31;0.10;;;0.10;;
13552;SDS011;6847;48.830;9.116;2023-09-07T07:25:19;0.10;;;0.10;;
13552;SDS011;6847;48.830;9.116;2023-09-07T07:28:08;0.10;;;0.10;;
13552;SDS011;6847;48.830;9.116;2023-09-07T07:30:57;0.10;;;0.10;;
13552;SDS011;6847;48.830;9.116;2023-09-07T07:33:42;0.90;;;0.90;;
13552;SDS011;6847;48.830;9.116;2023-09-07T07:36:28;0.20;;;0.20;;
13552;SDS011;6847;48.830;9.116;2023-09-07T07:39:20;0.20;;;0.20;;
13552;SDS011;6847;48.830;9.116;2023-09-07T07:42:06;0.10;;;0.10;;
13552;SDS011;6847;48.830;9.116;2023-09-07T07:44:51;0.13;;;0.13;;
13552;SDS011;6847;48.830;9.116;2023-09-07T07:47:36;0.20;;;0.20;;
13552;SDS011;6847;48.830;9.116;2023-09-07T07:50:25;0.30;;;0.30;;
13552;SDS011;6847;48.830;9.116;2023-09-07T07:53:15;0.20;;;0.20;;
13552;SDS011;6847;48.830;9.116;2023-09-07T07:56:02;0.20;;;0.20;;
13552;SDS011;6847;48.830;9.116;2023-09-07T07:58:49;0.20;;;0.20;;
13552;SDS011;6847;48.830;9.116;2023-09-07T08:01:37;0.20;;;0.20;;
13552;SDS011;6847;48.830;9.116;2023-09-07T08:04:28;0.20;;;0.20;;
13552;SDS011;6847;48.830;9.116;2023-09-07T08:07:18;0.20;;;0.20;;
13552;SDS011;6847;48.830;9.116;2023-09-07T08:10:04;0.20;;;0.20;;
13552;SDS011;6847;48.830;9.116;2023-09-07T08:12:53;0.20;;;0.20;;
13552;SDS011;6847;48.830;9.116;2023-09-07T08:15:47;0.20;;;0.20;;
13552;SDS011;6847;48.830;9.116;2023-09-07T08:18:35;0.20;;;0.20;;
13552;SDS011;6847;48.830;9.116;2023-09-07T08:21:20;0.30;;;0.30;;
13552;SDS011;6847;48.830;9.116;2023-09-07T08:24:06;0.17;;;0.17;;
13552;SDS011;6847;48.830;9.116;2023-09-07T08:26:53;0.20;;;0.20;;
13552;SDS011;6847;48.830;9.116;2023-09-07T08:29:41;0.20;;;0.20;;
13552;SDS011;6847;48.830;9.116;2023-09-07T08:32:31;0.17;;;0.17;;
13552;SDS011;6847;48.830;9.116;2023-09-07T08:35:17;0.20;;;0.20;;
13552;SDS011;6847;48.830;9.116;2023-09-07T08:38:03;0.30;;;0.30;;
13552;SDS011;6847;48.830;9.116;2023-09-07T08:40:51;0.20;;;0.20;;
13552;SDS011;6847;48.830;9.116;2023-09-07T08:43:44;0.20;;;0.20;;
13552;SDS011;6847;48.830;9.116;2023-09-07T08:46:35;0.17;;;0.17;;
13552;SDS011;6847;48.830;9.116;2023-09-07T08:49:23;0.20;;;0.20;;
13552;SDS011;6847;48.830;9.116;2023-09-07T08:52:09;0.30;;;0.30;;
13552;SDS011;6847;48.830;9.116;2023-09-07T08:54:57;0.20;;;0.20;;
13552;SDS011;6847;48.830;9.116;2023-09-07T08:57:45;0.20;;;0.20;;
13552;SDS011;6847;48.830;9.116;2023-09-07T09:00:30;0.20;;;0.20;;
13552;SDS011;6847;48.830;9.116;2023-09-07T09:03:20;0.20;;;0.20;;
13552;SDS011;6847;48.830;9.116;2023-09-07T09:06:06;0.20;;;0.20;;
13552;SDS011;6847;48.830;9.116;2023-09-07T09:08:53;0.20;;;0.20;;
13552;SDS011;6847;48.830;9.116;2023-09-07T09:11:42;0.10;;;0.10;;
13552;SDS011;6847;48.830;9.116;2023-09-07T09:14:32;0.20;;;0.20;;
13552;SDS011;6847;48.830;9.116;2023-09-07T09:17:24;0.10;;;0.10;;
13552;SDS011;6847;48.830;9.116;2023-09-07T09:20:21;0.20;;;0.20;;
13552;SDS011;6847;48.830;9.116;2023-09-07T09:23:09;0.20;;;0.20;;
13552;SDS011;6847;48.830;9.116;2023-09-07T09:26:10;0.20;;;0.20;;
13552;SDS011;6847;48.830;9.116;2023-09-07T09:28:57;0.20;;;0.20;;
13552;SDS011;6847;48.830;9.116;2023-09-07T09:31:44;0.20;;;0.20;;
13552;SDS011;6847;48.830;9.116;2023-09-07T09:34:31;0.20;;;0.20;;
13552;SDS011;6847;48.830;9.116;2023-09-07T09:37:33;0.30;;;0.30;;
13552;SDS011;6847;48.830;9.116;2023-09-07T09:40:19;0.20;;;0.20;;
13552;SDS011;6847;48.830;9.116;2023-09-07T09:43:07;1.00;;;0.60;;
13552;SDS011;6847;48.830;9.116;2023-09-07T09:45:53;0.20;;;0.20;;
13552;SDS011;6847;48.830;9.116;2023-09-07T09:48:40;0.22;;;0.22;;
13552;SDS011;6847;48.830;9.116;2023-09-07T09:51:30;0.20;;;0.20;;
13552;SDS011;6847;48.830;9.116;2023-09-07T09:54:18;0.22;;;0.22;;
13552;SDS011;6847;48.830;9.116;2023-09-07T09:57:03;0.20;;;0.20;;
13552;SDS011;6847;48.830;9.116;2023-09-07T09:59:49;0.30;;;0.30;;
13552;SDS011;6847;48.830;9.116;2023-09-07T10:02:36;0.30;;;0.30;;
13552;SDS011;6847;48.830;9.116;2023-09-07T10:05:22;0.30;;;0.30;;
13552;SDS011;6847;48.830;9.116;2023-09-07T10:08:11;0.30;;;0.30;;
13552;SDS011;6847;48.830;9.116;2023-09-07T10:11:00;0.28;;;0.28;;
13552;SDS011;6847;48.830;9.116;2023-09-07T10:13:56;0.20;;;0.20;;
13552;SDS011;6847;48.830;9.116;2023-09-07T10:16:46;0.20;;;0.20;;
13552;SDS011;6847;48.830;9.116;2023-09-07T10:19:33;0.20;;;0.20;;
13552;SDS011;6847;48.830;9.116;2023-09-07T10:22:21;0.22;;;0.22;;
13552;SDS011;6847;48.830;9.116;2023-09-07T10:25:17;0.30;;;0.30;;
13552;SDS011;6847;48.830;9.116;2023-09-07T10:28:05;0.20;;;0.20;;
13552;SDS011;6847;48.830;9.116;2023-09-07T10:31:03;0.22;;;0.22;;
13552;SDS011;6847;48.830;9.116;2023-09-07T10:33:50;0.22;;;0.22;;
13552;SDS011;6847;48.830;9.116;2023-09-07T10:36:38;3.95;;;0.55;;
13552;SDS011;6847;48.830;9.116;2023-09-07T10:39:30;0.30;;;0.30;;
13552;SDS011;6847;48.830;9.116;2023-09-07T10:42:22;0.28;;;0.28;;
13552;SDS011;6847;48.830;9.116;2023-09-07T10:45:11;0.30;;;0.30;;
13552;SDS011;6847;48.830;9.116;2023-09-07T10:48:00;0.20;;;0.20;;
13552;SDS011;6847;48.830;9.116;2023-09-07T10:50:47;0.30;;;0.30;;
13552;SDS011;6847;48.830;9.116;2023-09-07T10:53:35;0.20;;;0.20;;
13552;SDS011;6847;48.830;9.116;2023-09-07T10:56:20;0.30;;;0.30;;
13552;SDS011;6847;48.830;9.116;2023-09-07T10:59:09;0.32;;;0.32;;
13552;SDS011;6847;48.830;9.116;2023-09-07T11:02:06;0.30;;;0.30;;
13552;SDS011;6847;48.830;9.116;2023-09-07T11:04:51;0.30;;;0.30;;
13552;SDS011;6847;48.830;9.116;2023-09-07T11:07:37;0.20;;;0.20;;
13552;SDS011;6847;48.830;9.116;2023-09-07T11:10:24;0.40;;;0.40;;
13552;SDS011;6847;48.830;9.116;2023-09-07T11:13:12;0.20;;;0.20;;
13552;SDS011;6847;48.830;9.116;2023-09-07T11:16:00;0.22;;;0.22;;
13552;SDS011;6847;48.830;9.116;2023-09-07T11:18:50;0.30;;;0.30;;
13552;SDS011;6847;48.830;9.116;2023-09-07T11:21:36;0.20;;;0.20;;
13552;SDS011;6847;48.830;9.116;2023-09-07T11:24:21;0.30;;;0.30;;
13552;SDS011;6847;48.830;9.116;2023-09-07T11:27:08;0.30;;;0.30;;
13552;SDS011;6847;48.830;9.116;2023-09-07T11:29:57;0.30;;;0.30;;
13552;SDS011;6847;48.830;9.116;2023-09-07T11:32:42;0.30;;;0.30;;
13552;SDS011;6847;48.830;9.116;2023-09-07T11:35:32;0.20;;;0.20;;
13552;SDS011;6847;48.830;9.116;2023-09-07T11:38:20;0.40;;;0.40;;
13552;SDS011;6847;48.830;9.116;2023-09-07T11:41:07;0.28;;;0.28;;
13552;SDS011;6847;48.830;9.116;2023-09-07T11:43:52;0.20;;;0.20;;
13552;SDS011;6847;48.830;9.116;2023-09-07T11:46:40;0.30;;;0.30;;
13552;SDS011;6847;48.830;9.116;2023-09-07T11:49:36;0.25;;;0.25;;
13552;SDS011;6847;48.830;9.116;2023-09-07T11:52:26;0.28;;;0.28;;
13552;SDS011;6847;48.830;9.116;2023-09-07T11:55:14;0.20;;;0.20;;
13552;SDS011;6847;48.830;9.116;2023-09-07T11:57:59;0.30;;;0.30;;
13552;SDS011;6847;48.830;9.116;2023-09-07T12:00:46;0.20;;;0.20;;
13552;SDS011;6847;48.830;9.116;2023-09-07T12:03:31;0.30;;;0.30;;
13552;SDS011;6847;48.830;9.116;2023-09-07T12:06:16;0.28;;;0.28;;
13552;SDS011;6847;48.830;9.116;2023-09-07T12:09:05;0.20;;;0.20;;
13552;SDS011;6847;48.830;9.116;2023-09-07T12:11:53;0.30;;;0.30;;
13552;SDS011;6847;48.830;9.116;2023-09-07T12:14:38;0.20;;;0.20;;
13552;SDS011;6847;48.830;9.116;2023-09-07T12:17:25;0.20;;;0.20;;
13552;SDS011;6847;48.830;9.116;2023-09-07T12:20:10;0.20;;;0.20;;
13552;SDS011;6847;48.830;9.116;2023-09-07T12:22:58;0.20;;;0.20;;
13552;SDS011;6847;48.830;9.116;2023-09-07T12:25:49;0.20;;;0.20;;
13552;SDS011;6847;48.830;9.116;2023-09-07T12:28:35;0.22;;;0.22;;
13552;SDS011;6847;48.830;9.116;2023-09-07T12:31:20;0.20;;;0.20;;
13552;SDS011;6847;48.830;9.116;2023-09-07T12:34:09;0.30;;;0.30;;
13552;SDS011;6847;48.830;9.116;2023-09-07T12:36:55;0.32;;;0.32;;
13552;SDS011;6847;48.830;9.116;2023-09-07T12:39:42;0.30;;;0.30;;
13552;SDS011;6847;48.830;9.116;2023-09-07T12:42:29;0.20;;;0.20;;
13552;SDS011;6847;48.830;9.116;2023-09-07T12:45:18;0.20;;;0.20;;
13552;SDS011;6847;48.830;9.116;2023-09-07T12:48:04;0.30;;;0.30;;
13552;SDS011;6847;48.830;9.116;2023-09-07T12:50:51;0.20;;;0.20;;
13552;SDS011;6847;48.830;9.116;2023-09-07T12:53:36;0.28;;;0.28;;
13552;SDS011;6847;48.830;9.116;2023-09-07T12:56:24;0.30;;;0.30;;
13552;SDS011;6847;48.830;9.116;2023-09-07T12:59:10;0.40;;;0.40;;
13552;SDS011;6847;48.830;9.116;2023-09-07T13:01:58;0.40;;;0.40;;
13552;SDS011;6847;48.830;9.116;2023-09-07T13:04:44;0.30;;;0.30;;
13552;SDS011;6847;48.830;9.116;2023-09-07T13:07:30;0.30;;;0.30;;
13552;SDS011;6847;48.830;9.116;2023-09-07T13:10:17;0.40;;;0.40;;
13552;SDS011;6847;48.830;9.116;2023-09-07T13:13:02;0.30;;;0.30;;
13552;SDS011;6847;48.830;9.116;2023-09-07T13:15:49;0.40;;;0.40;;
13552;SDS011;6847;48.830;9.116;2023-09-07T13:18:37;0.30;;;0.30;;
13552;SDS011;6847;48.830;9.116;2023-09-07T13:21:25;0.38;;;0.38;;
13552;SDS011;6847;48.830;9.116;2023-09-07T13:24:11;0.30;;;0.30;;
13552;SDS011;6847;48.830;9.116;2023-09-07T13:26:56;0.60;;;0.60;;
13552;SDS011;6847;48.830;9.116;2023-09-07T13:29:42;0.30;;;0.30;;
13552;SDS011;6847;48.830;9.116;2023-09-07T13:32:38;0.40;;;0.40;;
13552;SDS011;6847;48.830;9.116;2023-09-07T13:35:23;0.47;;;0.47;;
13552;SDS011;6847;48.830;9.116;2023-09-07T13:38:09;0.60;;;0.60;;
13552;SDS011;6847;48.830;9.116;2023-09-07T13:40:54;0.40;;;0.40;;
13552;SDS011;6847;48.830;9.116;2023-09-07T13:43:39;0.47;;;0.47;;
13552;SDS011;6847;48.830;9.116;2023-09-07T13:46:24;0.40;;;0.40;;
13552;SDS011;6847;48.830;9.116;2023-09-07T13:49:12;0.45;;;0.45;;
13552;SDS011;6847;48.830;9.116;2023-09-07T13:51:58;0.43;;;0.43;;
13552;SDS011;6847;48.830;9.116;2023-09-07T13:54:43;0.40;;;0.40;;
13552;SDS011;6847;48.830;9.116;2023-09-07T13:57:28;0.30;;;0.30;;
13552;SDS011;6847;48.830;9.116;2023-09-07T14:00:15;0.47;;;0.47;;
13552;SDS011;6847;48.830;9.116;2023-09-07T14:03:03;0.40;;;0.40;;
13552;SDS011;6847;48.830;9.116;2023-09-07T14:05:53;0.50;;;0.50;;
13552;SDS011;6847;48.830;9.116;2023-09-07T14:08:42;0.57;;;0.57;;
13552;SDS011;6847;48.830;9.116;2023-09-07T14:11:28;0.60;;;0.60;;
13552;SDS011;6847;48.830;9.116;2023-09-07T14:14:18;0.57;;;0.57;;
13552;SDS011;6847;48.830;9.116;2023-09-07T14:17:05;0.50;;;0.50;;
13552;SDS011;6847;48.830;9.116;2023-09-07T14:19:51;0.45;;;0.45;;
13552;SDS011;6847;48.830;9.116;2023-09-07T14:22:38;0.70;;;0.70;;
13552;SDS011;6847;48.830;9.116;2023-09-07T14:25:23;0.50;;;0.50;;
13552;SDS011;6847;48.830;9.116;2023-09-07T14:28:10;0.43;;;0.43;;
13552;SDS011;6847;48.830;9.116;2023-09-07T14:30:56;0.50;;;0.50;;
13552;SDS011;6847;48.830;9.116;2023-09-07T14:33:43;0.50;;;0.50;;
13552;SDS011;6847;48.830;9.116;2023-09-07T14:36:28;0.60;;;0.60;;
13552;SDS011;6847;48.830;9.116;2023-09-07T14:39:16;0.40;;;0.40;;
13552;SDS011;6847;48.830;9.116;2023-09-07T14:42:07;0.50;;;0.50;;
13552;SDS011;6847;48.830;9.116;2023-09-07T14:45:00;0.65;;;0.65;;
13552;SDS011;6847;48.830;9.116;2023-09-07T14:47:45;0.40;;;0.40;;
13552;SDS011;6847;48.830;9.116;2023-09-07T14:50:31;0.82;;;0.77;;
13552;SDS011;6847;48.830;9.116;2023-09-07T14:53:16;0.40;;;0.40;;
13552;SDS011;6847;48.830;9.116;2023-09-07T14:56:04;0.47;;;0.47;;
13552;SDS011;6847;48.830;9.116;2023-09-07T14:58:50;0.50;;;0.50;;
13552;SDS011;6847;48.830;9.116;2023-09-07T15:01:36;0.30;;;0.30;;
13552;SDS011;6847;48.830;9.116;2023-09-07T15:04:22;0.30;;;0.30;;
13552;SDS011;6847;48.830;9.116;2023-09-07T15:07:07;0.40;;;0.40;;
13552;SDS011;6847;48.830;9.116;2023-09-07T15:10:08;0.50;;;0.50;;
13552;SDS011;6847;48.830;9.116;2023-09-07T15:12:57;0.50;;;0.50;;
13552;SDS011;6847;48.830;9.116;2023-09-07T15:15:51;0.60;;;0.60;;
13552;SDS011;6847;48.830;9.116;2023-09-07T15:18:39;0.50;;;0.50;;
13552;SDS011;6847;48.830;9.116;2023-09-07T15:21:24;0.60;;;0.60;;
13552;SDS011;6847;48.830;9.116;2023-09-07T15:24:10;0.50;;;0.50;;
13552;SDS011;6847;48.830;9.116;2023-09-07T15:26:55;0.50;;;0.50;;
13552;SDS011;6847;48.830;9.116;2023-09-07T15:29:42;0.40;;;0.40;;
13552;SDS011;6847;48.830;9.116;2023-09-07T15:32:27;0.82;;;0.82;;
13552;SDS011;6847;48.830;9.116;2023-09-07T15:35:13;0.50;;;0.50;;
13552;SDS011;6847;48.830;9.116;2023-09-07T15:37:58;0.80;;;0.80;;
13552;SDS011;6847;48.830;9.116;2023-09-07T15:40:44;0.52;;;0.52;;
13552;SDS011;6847;48.830;9.116;2023-09-07T15:43:31;0.50;;;0.50;;
13552;SDS011;6847;48.830;9.116;2023-09-07T15:46:18;0.50;;;0.50;;
13552;SDS011;6847;48.830;9.116;2023-09-07T15:49:07;0.68;;;0.68;;
13552;SDS011;6847;48.830;9.116;2023-09-07T15:51:52;0.40;;;0.40;;
13552;SDS011;6847;48.830;9.116;2023-09-07T15:54:37;0.38;;;0.38;;
13552;SDS011;6847;48.830;9.116;2023-09-07T15:57:25;0.50;;;0.50;;
13552;SDS011;6847;48.830;9.116;2023-09-07T16:00:13;0.30;;;0.30;;
13552;SDS011;6847;48.830;9.116;2023-09-07T16:03:01;0.52;;;0.52;;
13552;SDS011;6847;48.830;9.116;2023-09-07T16:05:46;0.30;;;0.30;;
13552;SDS011;6847;48.830;9.116;2023-09-07T16:08:33;0.43;;;0.43;;
13552;SDS011;6847;48.830;9.116;2023-09-07T16:11:22;0.47;;;0.47;;
13552;SDS011;6847;48.830;9.116;2023-09-07T16:14:08;0.30;;;0.30;;
13552;SDS011;6847;48.830;9.116;2023-09-07T16:16:55;0.30;;;0.30;;
13552;SDS011;6847;48.830;9.116;2023-09-07T16:19:41;0.40;;;0.40;;
13552;SDS011;6847;48.830;9.116;2023-09-07T16:22:33;0.40;;;0.40;;
13552;SDS011;6847;48.830;9.116;2023-09-07T16:25:19;0.30;;;0.30;;
13552;SDS011;6847;48.830;9.116;2023-09-07T16:28:05;0.28;;;0.28;;
13552;SDS011;6847;48.830;9.116;2023-09-07T16:30:50;0.40;;;0.40;;
13552;SDS011;6847;48.830;9.116;2023-09-07T16:33:36;0.40;;;0.40;;
13552;SDS011;6847;48.830;9.116;2023-09-07T16:36:23;0.40;;;0.40;;
13552;SDS011;6847;48.830;9.116;2023-09-07T16:39:08;0.20;;;0.20;;
13552;SDS011;6847;48.830;9.116;2023-09-07T16:41:55;0.30;;;0.30;;
13552;SDS011;6847;48.830;9.116;2023-09-07T16:44:40;0.22;;;0.22;;
13552;SDS011;6847;48.830;9.116;2023-09-07T16:47:26;0.30;;;0.30;;
13552;SDS011;6847;48.830;9.116;2023-09-07T16:50:11;0.20;;;0.20;;
13552;SDS011;6847;48.830;9.116;2023-09-07T16:52:59;0.20;;;0.20;;
13552;SDS011;6847;48.830;9.116;2023-09-07T16:55:46;0.30;;;0.30;;
13552;SDS011;6847;48.830;9.116;2023-09-07T16:58:32;0.20;;;0.20;;
13552;SDS011;6847;48.830;9.116;2023-09-07T17:01:18;0.20;;;0.20;;
13552;SDS011;6847;48.830;9.116;2023-09-07T17:04:05;0.20;;;0.20;;
13552;SDS011;6847;48.830;9.116;2023-09-07T17:06:51;0.20;;;0.20;;
13552;SDS011;6847;48.830;9.116;2023-09-07T17:09:37;0.30;;;0.30;;
13552;SDS011;6847;48.830;9.116;2023-09-07T17:12:25;0.20;;;0.20;;
13552;SDS011;6847;48.830;9.116;2023-09-07T17:15:10;0.22;;;0.22;;
13552;SDS011;6847;48.830;9.116;2023-09-07T17:17:57;0.20;;;0.20;;
13552;SDS011;6847;48.830;9.116;2023-09-07T17:20:42;0.10;;;0.10;;
13552;SDS011;6847;48.830;9.116;2023-09-07T17:23:31;0.20;;;0.20;;
13552;SDS011;6847;48.830;9.116;2023-09-07T17:26:17;0.43;;;0.43;;
13552;SDS011;6847;48.830;9.116;2023-09-07T17:29:07;0.13;;;0.13;;
13552;SDS011;6847;48.830;9.116;2023-09-07T17:31:53;0.20;;;0.20;;
13552;SDS011;6847;48.830;9.116;2023-09-07T17:34:40;0.10;;;0.10;;
13552;SDS011;6847;48.830;9.116;2023-09-07T17:37:28;0.20;;;0.20;;
13552;SDS011;6847;48.830;9.116;2023-09-07T17:40:17;0.20;;;0.20;;
13552;SDS011;6847;48.830;9.116;2023-09-07T17:43:04;0.20;;;0.20;;
13552;SDS011;6847;48.830;9.116;2023-09-07T17:45:51;0.13;;;0.13;;
13552;SDS011;6847;48.830;9.116;2023-09-07T17:48:39;0.20;;;0.20;;
13552;SDS011;6847;48.830;9.116;2023-09-07T17:51:24;0.20;;;0.20;;
13552;SDS011;6847;48.830;9.116;2023-09-07T17:54:12;0.20;;;0.20;;
13552;SDS011;6847;48.830;9.116;2023-09-07T17:56:58;0.20;;;0.20;;
13552;SDS011;6847;48.830;9.116;2023-09-07T17:59:44;0.20;;;0.20;;
13552;SDS011;6847;48.830;9.116;2023-09-07T18:02:31;0.10;;;0.10;;
13552;SDS011;6847;48.830;9.116;2023-09-07T18:05:16;0.13;;;0.13;;
13552;SDS011;6847;48.830;9.116;2023-09-07T18:08:11;0.10;;;0.10;;
13552;SDS011;6847;48.830;9.116;2023-09-07T18:10:57;0.15;;;0.15;;
13552;SDS011;6847;48.830;9.116;2023-09-07T18:13:42;0.10;;;0.10;;
13552;SDS011;6847;48.830;9.116;2023-09-07T18:16:31;0.17;;;0.17;;
13552;SDS011;6847;48.830;9.116;2023-09-07T18:19:17;0.10;;;0.10;;
13552;SDS011;6847;48.830;9.116;2023-09-07T18:22:13;0.13;;;0.13;;
13552;SDS011;6847;48.830;9.116;2023-09-07T18:25:00;0.20;;;0.20;;
13552;SDS011;6847;48.830;9.116;2023-09-07T18:27:49;0.10;;;0.10;;
13552;SDS011;6847;48.830;9.116;2023-09-07T18:30:36;0.10;;;0.10;;
13552;SDS011;6847;48.830;9.116;2023-09-07T18:33:39;0.20;;;0.20;;
13552;SDS011;6847;48.830;9.116;2023-09-07T18:36:25;0.20;;;0.20;;
13552;SDS011;6847;48.830;9.116;2023-09-07T18:39:12;0.00;;;0.00;;
13552;SDS011;6847;48.830;9.116;2023-09-07T18:42:05;0.10;;;0.10;;
13552;SDS011;6847;48.830;9.116;2023-09-07T18:44:54;0.10;;;0.10;;
13552;SDS011;6847;48.830;9.116;2023-09-07T19:16:31;0.10;;;0.10;;
13552;SDS011;6847;48.830;9.116;2023-09-07T19:19:55;0.10;;;0.10;;
13552;SDS011;6847;48.830;9.116;2023-09-07T19:24:18;0.30;;;0.30;;
13552;SDS011;6847;48.830;9.116;2023-09-07T19:27:38;0.10;;;0.10;;
13552;SDS011;6847;48.830;9.116;2023-09-07T19:31:47;0.10;;;0.10;;
13552;SDS011;6847;48.830;9.116;2023-09-07T19:39:08;0.10;;;0.10;;
13552;SDS011;6847;48.830;9.116;2023-09-07T19:54:37;0.10;;;0.10;;
13552;SDS011;6847;48.830;9.116;2023-09-07T19:57:58;0.10;;;0.10;;
13552;SDS011;6847;48.830;9.116;2023-09-07T20:05:17;0.20;;;0.20;;
13552;SDS011;6847;48.830;9.116;2023-09-07T20:09:14;0.10;;;0.10;;
13552;SDS011;6847;48.830;9.116;2023-09-07T20:33:17;0.20;;;0.20;;
13552;SDS011;6847;48.830;9.116;2023-09-07T21:12:08;0.10;;;0.10;;
13552;SDS011;6847;48.830;9.116;2023-09-07T22:06:53;0.10;;;0.10;;
13552;SDS011;6847;48.830;9.116;2023-09-07T22:14:21;0.10;;;0.10;;
13552;SDS011;6847;48.830;9.116;2023-09-07T22:22:19;0.10;;;0.10;;
13552;SDS011;6847;48.830;9.116;2023-09-07T22:49:37;0.10;;;0.10;;
13552;SDS011;6847;48.830;9.116;2023-09-07T22:57:38;0.10;;;0.10;;
